createdAt,value
2017-11-29T00:01:09.422Z,20.40
2017-11-29T00:03:36.882Z,20.57
2017-11-29T00:06:04.646Z,18.30
2017-11-29T00:08:32.765Z,20.87
2017-11-29T00:11:00.257Z,18.10
2017-11-29T00:13:28.258Z,16.20
2017-11-29T00:15:55.719Z,20.03
2017-11-29T00:18:23.179Z,15.37
2017-11-29T00:20:50.938Z,14.90
2017-11-29T00:23:18.402Z,13.83
2017-11-29T00:25:45.869Z,14.03
2017-11-29T00:28:13.500Z,15.87
2017-11-29T00:30:40.965Z,14.90
2017-11-29T00:33:08.417Z,13.97
2017-11-29T00:35:36.231Z,13.90
2017-11-29T00:38:03.691Z,14.83
2017-11-29T00:40:31.154Z,14.67
2017-11-29T00:42:58.994Z,13.40
2017-11-29T00:45:26.445Z,15.13
2017-11-29T00:47:54.301Z,15.30
2017-11-29T00:50:22.294Z,14.30
2017-11-29T00:52:49.763Z,13.33
2017-11-29T00:55:17.225Z,13.30
2017-11-29T00:57:45.301Z,14.70
2017-11-29T01:00:12.758Z,15.70
2017-11-29T01:02:40.216Z,14.40
2017-11-29T01:05:07.988Z,13.90
2017-11-29T01:07:35.445Z,14.10
2017-11-29T01:10:02.909Z,14.60
2017-11-29T01:12:30.665Z,14.80
2017-11-29T01:14:58.169Z,15.07
2017-11-29T01:17:25.638Z,14.70
2017-11-29T01:19:53.357Z,13.60
2017-11-29T01:22:20.818Z,15.30
2017-11-29T01:24:48.280Z,14.33
2017-11-29T01:27:16.043Z,15.43
2017-11-29T01:29:43.499Z,15.37
2017-11-29T01:32:10.956Z,16.33
2017-11-29T01:34:39.030Z,14.50
2017-11-29T01:37:06.507Z,14.80
2017-11-29T01:39:33.958Z,14.77
2017-11-29T01:42:01.690Z,14.07
2017-11-29T01:44:29.166Z,14.60
2017-11-29T01:46:56.624Z,14.00
2017-11-29T01:49:25.033Z,15.40
2017-11-29T01:51:52.496Z,15.07
2017-11-29T01:54:19.950Z,13.83
2017-11-29T01:56:48.018Z,14.57
2017-11-29T01:59:15.474Z,14.60
2017-11-29T02:01:42.926Z,13.17
2017-11-29T02:04:10.713Z,13.13
2017-11-29T02:06:41.010Z,15.33
2017-11-29T02:09:08.467Z,15.23
2017-11-29T02:11:36.186Z,16.90
2017-11-29T02:14:03.650Z,16.63
2017-11-29T02:16:31.109Z,19.63
2017-11-29T02:18:58.841Z,18.03
2017-11-29T02:21:26.314Z,19.90
2017-11-29T02:23:53.824Z,19.23
2017-11-29T02:26:21.885Z,17.63
2017-11-29T02:28:49.362Z,18.13
2017-11-29T02:31:17.140Z,18.97
2017-11-29T02:33:45.142Z,18.00
2017-11-29T02:36:12.602Z,17.13
2017-11-29T02:38:40.072Z,17.93
2017-11-29T02:41:20.118Z,17.90
2017-11-29T02:43:47.589Z,18.53
2017-11-29T02:46:15.059Z,18.80
2017-11-29T02:48:43.287Z,17.00
2017-11-29T02:51:11.271Z,19.30
2017-11-29T02:53:38.765Z,21.20
2017-11-29T02:56:06.490Z,20.63
2017-11-29T02:58:33.964Z,20.50
2017-11-29T03:01:01.419Z,20.77
2017-11-29T03:03:29.378Z,20.67
2017-11-29T03:05:56.847Z,20.07
2017-11-29T03:08:24.308Z,19.40
2017-11-29T03:10:52.335Z,20.27
2017-11-29T03:13:19.804Z,21.23
2017-11-29T03:15:47.262Z,20.60
2017-11-29T03:18:15.095Z,23.13
2017-11-29T03:20:42.564Z,20.80
2017-11-29T03:23:10.030Z,21.73
2017-11-29T03:25:38.054Z,18.97
2017-11-29T03:28:05.509Z,21.13
2017-11-29T03:30:32.985Z,19.47
2017-11-29T03:33:00.772Z,19.77
2017-11-29T03:35:28.230Z,19.40
2017-11-29T03:37:55.694Z,20.77
2017-11-29T03:40:24.017Z,20.73
2017-11-29T03:42:51.479Z,22.00
2017-11-29T03:45:18.939Z,22.03
2017-11-29T03:47:46.811Z,21.43
2017-11-29T03:50:14.268Z,21.90
2017-11-29T03:52:42.675Z,21.63
2017-11-29T03:55:10.408Z,21.27
2017-11-29T03:57:37.866Z,21.33
2017-11-29T04:00:05.333Z,24.40
2017-11-29T04:02:33.355Z,22.80
2017-11-29T04:05:00.815Z,23.13
2017-11-29T04:07:28.282Z,23.73
2017-11-29T04:09:56.042Z,24.07
2017-11-29T04:12:23.522Z,27.80
2017-11-29T04:14:50.981Z,23.93
2017-11-29T04:17:18.789Z,24.13
2017-11-29T04:19:46.255Z,28.20
2017-11-29T04:22:13.732Z,31.70
2017-11-29T04:24:41.724Z,25.57
2017-11-29T04:27:09.182Z,21.10
2017-11-29T04:29:36.638Z,21.87
2017-11-29T04:32:04.415Z,20.30
2017-11-29T04:34:31.882Z,25.70
2017-11-29T04:36:59.339Z,20.80
2017-11-29T04:39:27.409Z,18.37
2017-11-29T04:41:54.930Z,22.03
2017-11-29T04:44:22.383Z,19.80
2017-11-29T04:46:50.099Z,21.80
2017-11-29T04:49:17.563Z,22.27
2017-11-29T04:51:45.024Z,24.40
2017-11-29T04:54:15.243Z,23.20
2017-11-29T04:56:42.702Z,23.37
2017-11-29T04:59:10.169Z,24.50
2017-11-29T05:01:37.928Z,23.40
2017-11-29T05:04:05.409Z,23.97
2017-11-29T05:06:32.866Z,24.80
2017-11-29T05:09:00.509Z,22.73
2017-11-29T05:11:27.973Z,23.60
2017-11-29T05:13:55.442Z,22.63
2017-11-29T05:16:23.307Z,25.00
2017-11-29T05:18:50.765Z,24.43
2017-11-29T05:21:18.222Z,26.17
2017-11-29T05:23:46.290Z,25.07
2017-11-29T05:26:13.748Z,27.77
2017-11-29T05:28:41.208Z,26.43
2017-11-29T05:31:09.294Z,25.30
2017-11-29T05:33:36.753Z,28.40
2017-11-29T05:36:04.220Z,29.00
2017-11-29T05:38:31.975Z,26.90
2017-11-29T05:40:59.441Z,26.17
2017-11-29T05:43:26.906Z,26.13
2017-11-29T05:45:54.667Z,25.47
2017-11-29T05:48:22.136Z,24.80
2017-11-29T05:50:49.608Z,23.80
2017-11-29T05:53:17.353Z,22.57
2017-11-29T05:55:46.355Z,21.50
2017-11-29T05:58:13.813Z,21.50
2017-11-29T06:00:41.699Z,22.83
2017-11-29T06:03:09.158Z,21.57
2017-11-29T06:05:36.626Z,20.57
2017-11-29T06:08:04.564Z,21.47
2017-11-29T06:10:32.027Z,22.20
2017-11-29T06:12:59.489Z,23.40
2017-11-29T06:15:27.567Z,22.80
2017-11-29T06:17:55.026Z,23.20
2017-11-29T06:20:22.486Z,23.00
2017-11-29T06:22:50.238Z,22.63
2017-11-29T06:25:17.693Z,23.97
2017-11-29T06:27:45.163Z,25.30
2017-11-29T06:30:12.934Z,23.30
2017-11-29T06:32:40.391Z,23.43
2017-11-29T06:35:07.853Z,20.97
2017-11-29T06:37:35.992Z,23.37
2017-11-29T06:40:03.464Z,23.13
2017-11-29T06:42:30.927Z,20.47
2017-11-29T06:44:58.743Z,21.10
2017-11-29T06:47:26.208Z,21.70
2017-11-29T06:49:53.661Z,21.60
2017-11-29T06:52:21.579Z,21.00
2017-11-29T06:54:49.030Z,23.20
2017-11-29T06:57:16.920Z,24.23
2017-11-29T07:06:28.601Z,44.63
2017-11-29T07:08:56.069Z,33.23
2017-11-29T07:11:23.529Z,27.33
2017-11-29T07:13:51.265Z,23.60
2017-11-29T07:16:18.725Z,26.53
2017-11-29T07:18:46.196Z,26.10
2017-11-29T07:21:13.962Z,27.93
2017-11-29T07:23:41.451Z,24.73
2017-11-29T07:26:08.909Z,25.07
2017-11-29T07:28:36.649Z,22.77
2017-11-29T07:31:04.132Z,23.30
2017-11-29T07:33:31.609Z,22.83
2017-11-29T07:35:59.642Z,23.13
2017-11-29T07:38:27.102Z,22.93
2017-11-29T07:40:54.559Z,25.40
2017-11-29T07:43:22.320Z,22.93
2017-11-29T07:45:49.786Z,22.93
2017-11-29T07:48:17.251Z,22.83
2017-11-29T07:50:45.021Z,22.30
2017-11-29T07:53:12.488Z,21.20
2017-11-29T07:55:39.972Z,22.00
2017-11-29T07:58:08.319Z,22.10
2017-11-29T08:00:35.783Z,23.23
2017-11-29T08:03:03.243Z,21.87
2017-11-29T08:05:30.999Z,20.00
2017-11-29T08:07:58.467Z,19.03
2017-11-29T08:10:25.947Z,21.20
2017-11-29T08:12:53.691Z,19.67
2017-11-29T08:15:21.161Z,20.30
2017-11-29T08:17:48.634Z,19.70
2017-11-29T08:20:16.995Z,18.70
2017-11-29T08:22:44.459Z,18.40
2017-11-29T08:25:11.918Z,19.57
2017-11-29T08:27:39.586Z,20.00
2017-11-29T08:30:07.047Z,17.57
2017-11-29T08:32:34.508Z,18.70
2017-11-29T08:35:02.362Z,19.57
2017-11-29T08:37:29.831Z,17.73
2017-11-29T08:39:57.305Z,21.03
2017-11-29T08:42:25.073Z,19.60
2017-11-29T08:44:52.528Z,18.20
2017-11-29T08:47:20.003Z,19.00
2017-11-29T08:49:47.731Z,16.97
2017-11-29T08:52:15.195Z,16.43
2017-11-29T08:54:42.656Z,17.60
2017-11-29T08:57:10.423Z,18.23
2017-11-29T08:59:38.285Z,19.47
2017-11-29T09:02:05.744Z,20.20
2017-11-29T09:04:33.580Z,18.77
2017-11-29T09:07:01.038Z,18.27
2017-11-29T09:09:28.494Z,18.33
2017-11-29T09:11:56.182Z,17.97
2017-11-29T09:14:23.647Z,16.57
2017-11-29T09:16:51.106Z,16.23
2017-11-29T09:19:19.099Z,20.13
2017-11-29T09:21:46.571Z,16.33
2017-11-29T09:24:14.046Z,14.90
2017-11-29T09:26:41.783Z,15.87
2017-11-29T09:29:09.249Z,14.83
2017-11-29T09:31:36.714Z,14.27
2017-11-29T09:34:04.479Z,15.90
2017-11-29T09:36:31.941Z,14.70
2017-11-29T09:38:59.404Z,14.50
2017-11-29T09:41:27.158Z,16.17
2017-11-29T09:43:54.614Z,16.03
2017-11-29T09:46:22.075Z,15.57
2017-11-29T09:48:49.794Z,16.10
2017-11-29T09:51:17.257Z,16.20
2017-11-29T09:53:44.843Z,17.00
2017-11-29T09:56:12.562Z,14.67
2017-11-29T09:58:40.367Z,13.80
2017-11-29T10:01:08.450Z,12.50
2017-11-29T10:03:36.142Z,14.63
2017-11-29T10:06:03.601Z,15.57
2017-11-29T10:08:31.138Z,15.50
2017-11-29T10:10:59.134Z,14.63
2017-11-29T10:13:26.607Z,13.53
2017-11-29T10:15:54.443Z,14.80
2017-11-29T10:18:22.125Z,14.27
2017-11-29T10:20:49.607Z,12.37
2017-11-29T10:23:17.077Z,12.30
2017-11-29T10:25:44.818Z,13.83
2017-11-29T10:28:12.284Z,12.77
2017-11-29T10:30:39.746Z,12.43
2017-11-29T10:33:07.505Z,12.23
2017-11-29T10:35:35.038Z,12.67
2017-11-29T10:38:02.514Z,11.97
2017-11-29T10:40:30.527Z,12.13
2017-11-29T10:42:57.984Z,13.30
2017-11-29T10:45:25.450Z,14.23
2017-11-29T10:47:53.376Z,12.97
2017-11-29T10:50:21.030Z,12.87
2017-11-29T10:52:48.491Z,14.13
2017-11-29T10:55:16.511Z,13.40
2017-11-29T10:57:44.336Z,14.50
2017-11-29T11:00:11.799Z,14.90
2017-11-29T11:02:40.405Z,15.03
2017-11-29T11:05:07.858Z,16.80
2017-11-29T11:07:35.314Z,16.53
2017-11-29T11:10:03.109Z,15.60
2017-11-29T11:12:30.566Z,16.60
2017-11-29T11:14:58.023Z,17.50
2017-11-29T11:17:25.776Z,15.17
2017-11-29T11:19:53.241Z,14.90
2017-11-29T11:22:20.715Z,13.00
2017-11-29T11:24:48.469Z,15.60
2017-11-29T11:27:15.931Z,13.60
2017-11-29T11:29:43.396Z,11.00
2017-11-29T11:32:11.062Z,10.37
2017-11-29T11:34:38.534Z,12.40
2017-11-29T11:37:05.986Z,11.10
2017-11-29T11:39:33.837Z,12.00
2017-11-29T11:42:01.324Z,12.00
2017-11-29T11:44:29.147Z,11.40
2017-11-29T11:46:57.143Z,10.43
2017-11-29T11:49:24.684Z,10.07
2017-11-29T11:51:52.149Z,11.40
2017-11-29T11:54:20.140Z,12.30
2017-11-29T11:56:47.610Z,13.93
2017-11-29T11:59:15.135Z,13.20
2017-11-29T12:01:42.861Z,13.07
2017-11-29T12:04:10.979Z,13.13
2017-11-29T12:06:38.456Z,11.23
2017-11-29T12:09:06.423Z,12.60
2017-11-29T12:11:33.883Z,12.80
2017-11-29T12:14:01.338Z,13.83
2017-11-29T12:16:29.112Z,13.43
2017-11-29T12:18:56.563Z,13.93
2017-11-29T12:21:24.016Z,14.63
2017-11-29T12:23:52.297Z,13.83
2017-11-29T12:26:19.755Z,16.27
2017-11-29T12:28:47.216Z,15.00
2017-11-29T12:31:15.108Z,13.87
2017-11-29T12:33:42.573Z,15.13
2017-11-29T12:36:10.094Z,12.70
2017-11-29T12:38:37.806Z,16.37
2017-11-29T12:41:05.275Z,16.57
2017-11-29T12:43:32.739Z,17.97
2017-11-29T12:46:00.779Z,17.93
2017-11-29T12:48:39.887Z,18.30
2017-11-29T12:51:19.679Z,17.07
2017-11-29T12:53:47.144Z,17.50
2017-11-29T12:56:14.607Z,19.50
2017-11-29T12:58:42.658Z,19.83
2017-11-29T13:01:10.187Z,19.70
2017-11-29T13:03:37.646Z,17.40
2017-11-29T13:06:06.286Z,19.37
2017-11-29T13:08:33.755Z,17.90
2017-11-29T13:11:01.222Z,20.10
2017-11-29T13:13:29.271Z,18.70
2017-11-29T13:15:56.734Z,19.17
2017-11-29T13:18:24.206Z,22.20
2017-11-29T13:20:52.262Z,23.17
2017-11-29T13:23:19.758Z,23.87
2017-11-29T13:25:47.224Z,23.67
2017-11-29T13:28:14.941Z,23.40
2017-11-29T13:30:42.392Z,31.70
2017-11-29T13:33:09.884Z,38.80
2017-11-29T13:35:37.640Z,35.93
2017-11-29T13:38:05.095Z,34.73
2017-11-29T13:40:32.549Z,28.53
2017-11-29T13:43:00.324Z,32.87
2017-11-29T13:45:27.794Z,34.30
2017-11-29T13:47:55.250Z,30.10
2017-11-29T13:50:23.041Z,30.30
2017-11-29T13:52:50.511Z,33.07
2017-11-29T13:55:17.979Z,33.67
2017-11-29T13:57:45.694Z,33.10
2017-11-29T14:00:13.151Z,29.47
2017-11-29T14:02:40.611Z,30.70
2017-11-29T14:05:08.389Z,32.40
2017-11-29T14:07:36.284Z,33.97
2017-11-29T14:10:03.742Z,36.37
2017-11-29T14:12:31.474Z,35.23
2017-11-29T14:14:58.928Z,33.33
2017-11-29T14:17:26.378Z,28.93
2017-11-29T14:19:54.803Z,30.17
2017-11-29T14:22:22.264Z,27.07
2017-11-29T14:24:49.722Z,26.43
2017-11-29T14:27:17.677Z,29.30
2017-11-29T14:29:45.147Z,29.10
2017-11-29T14:32:12.606Z,28.57
2017-11-29T14:34:40.391Z,30.07
2017-11-29T14:37:07.862Z,32.23
2017-11-29T14:39:35.533Z,31.10
2017-11-29T14:42:03.667Z,29.67
2017-11-29T14:44:31.131Z,28.10
2017-11-29T14:46:58.587Z,24.90
2017-11-29T14:49:26.368Z,25.50
2017-11-29T14:51:53.835Z,23.73
2017-11-29T14:54:21.294Z,22.63
2017-11-29T14:56:49.351Z,20.33
2017-11-29T14:59:16.807Z,20.60
2017-11-29T15:01:44.267Z,21.43
2017-11-29T15:04:12.035Z,22.50
2017-11-29T15:06:39.496Z,19.30
2017-11-29T15:09:07.643Z,22.57
2017-11-29T15:11:35.327Z,22.53
2017-11-29T15:14:02.785Z,20.37
2017-11-29T15:16:32.554Z,22.47
2017-11-29T15:19:00.759Z,22.27
2017-11-29T15:21:28.226Z,23.07
2017-11-29T15:23:55.686Z,23.67
2017-11-29T15:26:23.691Z,20.30
2017-11-29T15:28:51.159Z,22.63
2017-11-29T15:31:18.616Z,25.10
2017-11-29T15:33:46.471Z,23.83
2017-11-29T15:36:13.934Z,23.27
2017-11-29T15:38:41.394Z,23.90
2017-11-29T15:41:09.146Z,32.20
2017-11-29T15:43:36.613Z,23.60
2017-11-29T15:46:04.078Z,22.63
2017-11-29T15:48:31.835Z,21.97
2017-11-29T15:50:59.299Z,22.53
2017-11-29T15:53:26.761Z,24.40
2017-11-29T15:55:54.525Z,23.40
2017-11-29T15:58:21.989Z,25.00
2017-11-29T16:00:49.466Z,23.27
2017-11-29T16:03:17.544Z,23.17
2017-11-29T16:05:45.005Z,23.07
2017-11-29T16:08:12.470Z,24.90
2017-11-29T16:10:42.670Z,23.13
2017-11-29T16:13:10.137Z,20.80
2017-11-29T16:15:37.611Z,19.50
2017-11-29T16:18:05.664Z,20.40
2017-11-29T16:20:33.130Z,19.50
2017-11-29T16:23:00.595Z,18.90
2017-11-29T16:25:28.345Z,20.60
2017-11-29T16:27:55.819Z,18.73
2017-11-29T16:30:23.280Z,18.30
2017-11-29T16:32:51.039Z,19.80
2017-11-29T16:35:18.496Z,19.60
2017-11-29T16:37:45.963Z,19.03
2017-11-29T16:40:13.595Z,19.97
2017-11-29T16:42:41.052Z,18.80
2017-11-29T16:45:08.518Z,20.77
2017-11-29T16:47:36.760Z,21.87
2017-11-29T16:50:04.222Z,31.90
2017-11-29T16:52:31.683Z,34.50
2017-11-29T16:54:59.402Z,38.67
2017-11-29T16:57:26.885Z,43.57
2017-11-29T16:59:54.346Z,60.10
2017-11-29T17:02:22.083Z,49.70
2017-11-29T17:04:49.557Z,48.47
2017-11-29T17:07:17.030Z,41.20
2017-11-29T17:09:45.084Z,40.50
2017-11-29T17:12:13.238Z,42.70
2017-11-29T17:14:40.704Z,48.70
2017-11-29T17:17:08.388Z,48.90
2017-11-29T17:19:35.863Z,54.73
2017-11-29T17:22:03.334Z,56.67
2017-11-29T17:24:32.202Z,56.37
2017-11-29T17:26:59.741Z,58.50
2017-11-29T17:29:27.205Z,64.30
2017-11-29T17:31:54.990Z,54.63
2017-11-29T17:34:22.623Z,59.40
2017-11-29T17:36:50.095Z,60.17
2017-11-29T17:39:17.979Z,81.90
2017-11-29T17:41:45.451Z,47.67
2017-11-29T17:44:12.915Z,43.00
2017-11-29T17:46:40.676Z,36.97
2017-11-29T17:49:08.142Z,41.73
2017-11-29T17:51:35.603Z,42.03
2017-11-29T17:54:03.362Z,39.57
2017-11-29T17:56:30.821Z,38.80
2017-11-29T17:58:58.286Z,41.57
2017-11-29T18:01:26.355Z,50.10
2017-11-29T18:03:53.815Z,50.17
2017-11-29T18:06:21.276Z,49.17
2017-11-29T18:08:49.034Z,55.30
2017-11-29T18:11:16.510Z,56.70
2017-11-29T18:13:44.727Z,63.27
2017-11-29T18:16:12.343Z,61.83
2017-11-29T18:18:39.804Z,63.10
2017-11-29T18:21:07.278Z,62.60
2017-11-29T18:23:35.027Z,64.13
2017-11-29T18:26:02.479Z,58.40
2017-11-29T18:28:29.943Z,49.10
2017-11-29T18:30:57.588Z,49.10
2017-11-29T18:33:25.045Z,45.87
2017-11-29T18:35:52.500Z,44.37
2017-11-29T18:38:20.412Z,43.60
2017-11-29T18:40:47.868Z,44.97
2017-11-29T18:43:15.367Z,45.70
2017-11-29T18:45:43.399Z,46.87
2017-11-29T18:48:10.878Z,58.70
2017-11-29T18:50:38.340Z,52.27
2017-11-29T18:53:06.017Z,53.53
2017-11-29T18:55:33.491Z,57.57
2017-11-29T18:58:00.948Z,67.67
2017-11-29T19:00:28.774Z,67.30
2017-11-29T19:02:56.247Z,61.97
2017-11-29T19:05:23.715Z,65.87
2017-11-29T19:07:51.660Z,53.13
2017-11-29T19:10:19.180Z,57.88
2017-11-29T19:12:46.731Z,50.27
2017-11-29T19:15:15.385Z,49.07
2017-11-29T19:17:42.843Z,47.10
2017-11-29T19:20:10.303Z,43.50
2017-11-29T19:22:38.131Z,43.73
2017-11-29T19:25:05.615Z,45.53
2017-11-29T19:27:33.094Z,47.07
2017-11-29T19:30:00.756Z,52.80
2017-11-29T19:32:28.226Z,50.50
2017-11-29T19:34:55.722Z,48.50
2017-11-29T19:37:23.814Z,59.03
2017-11-29T19:39:51.480Z,44.27
2017-11-29T19:42:18.978Z,42.40
2017-11-29T19:44:46.731Z,39.03
2017-11-29T19:47:14.195Z,44.20
2017-11-29T19:49:41.658Z,41.30
2017-11-29T19:52:09.727Z,38.40
2017-11-29T19:54:37.477Z,40.37
2017-11-29T19:57:04.979Z,40.33
2017-11-29T19:59:32.738Z,36.17
2017-11-29T20:02:00.237Z,37.50
2017-11-29T20:04:27.971Z,37.97
2017-11-29T20:06:56.014Z,38.43
2017-11-29T20:09:23.533Z,37.70
2017-11-29T20:11:51.029Z,38.77
2017-11-29T20:14:18.828Z,40.70
2017-11-29T20:16:46.730Z,41.50
2017-11-29T20:19:14.212Z,39.57
2017-11-29T20:21:42.033Z,38.13
2017-11-29T20:24:09.539Z,41.23
2017-11-29T20:26:36.985Z,42.90
2017-11-29T20:29:04.750Z,134.97
2017-11-29T20:31:32.217Z,322.27
2017-11-29T20:33:59.703Z,46.37
2017-11-29T20:36:27.602Z,41.57
2017-11-29T20:38:55.079Z,41.87
2017-11-29T20:41:23.014Z,36.80
2017-11-29T20:43:50.999Z,41.27
2017-11-29T20:46:18.502Z,40.43
2017-11-29T20:48:45.966Z,35.90
2017-11-29T20:51:13.716Z,39.27
2017-11-29T20:53:41.188Z,33.57
2017-11-29T20:56:08.650Z,36.80
2017-11-29T20:58:36.680Z,41.70
2017-11-29T21:01:04.149Z,38.83
2017-11-29T21:03:31.640Z,36.60
2017-11-29T21:05:59.366Z,34.57
2017-11-29T21:08:26.836Z,35.40
2017-11-29T21:10:54.296Z,37.27
2017-11-29T21:13:22.034Z,37.60
2017-11-29T21:15:49.795Z,34.13
2017-11-29T21:18:17.878Z,35.37
2017-11-29T21:20:45.961Z,38.30
2017-11-29T21:23:13.455Z,40.10
2017-11-29T21:25:40.934Z,35.87
2017-11-29T21:28:08.659Z,39.50
2017-11-29T21:30:36.117Z,41.07
2017-11-29T21:33:03.874Z,41.53
2017-11-29T21:35:31.689Z,39.77
2017-11-29T21:37:59.161Z,41.43
2017-11-29T21:40:26.632Z,177.93
2017-11-29T21:42:54.514Z,108.13
2017-11-29T21:45:21.980Z,43.00
2017-11-29T21:47:49.460Z,43.30
2017-11-29T21:50:17.324Z,45.50
2017-11-29T21:52:44.779Z,45.27
2017-11-29T21:55:12.239Z,44.10
2017-11-29T21:57:40.027Z,46.33
2017-11-29T22:00:07.493Z,46.03
2017-11-29T22:02:34.951Z,46.70
2017-11-29T22:05:02.712Z,47.00
2017-11-29T22:07:30.171Z,51.30
2017-11-29T22:09:57.632Z,51.33
2017-11-29T22:12:25.386Z,49.47
2017-11-29T22:14:52.854Z,46.43
2017-11-29T22:17:20.356Z,45.70
2017-11-29T22:19:49.002Z,43.23
2017-11-29T22:22:16.466Z,44.70
2017-11-29T22:24:43.926Z,46.80
2017-11-29T22:27:14.764Z,47.70
2017-11-29T22:29:42.230Z,48.70
2017-11-29T22:32:09.695Z,46.97
2017-11-29T22:34:37.437Z,49.07
2017-11-29T22:37:04.891Z,46.53
2017-11-29T22:39:32.706Z,49.93
2017-11-29T22:42:00.443Z,47.97
2017-11-29T22:44:27.907Z,48.80
2017-11-29T22:46:55.366Z,48.70
2017-11-29T22:49:23.130Z,51.70
2017-11-29T22:51:50.591Z,50.23
2017-11-29T22:54:18.054Z,49.30
2017-11-29T22:56:46.130Z,48.97
2017-11-29T22:59:13.590Z,49.93
2017-11-29T23:01:41.048Z,50.30
2017-11-29T23:04:08.809Z,47.63
2017-11-29T23:06:36.274Z,49.17
2017-11-29T23:09:03.730Z,47.10
2017-11-29T23:11:31.511Z,48.03
2017-11-29T23:13:58.970Z,50.37
2017-11-29T23:16:26.427Z,48.50
2017-11-29T23:18:54.173Z,48.40
2017-11-29T23:21:22.163Z,48.30
2017-11-29T23:23:49.626Z,49.77
2017-11-29T23:26:17.463Z,50.80
2017-11-29T23:28:44.920Z,52.10
2017-11-29T23:31:12.389Z,55.67
2017-11-29T23:33:40.115Z,58.23
2017-11-29T23:36:07.574Z,55.77
2017-11-29T23:38:35.034Z,52.37
2017-11-29T23:41:02.862Z,52.53
2017-11-29T23:43:30.319Z,54.93
2017-11-29T23:45:57.784Z,56.50
2017-11-29T23:48:25.543Z,60.10
2017-11-29T23:50:53.004Z,53.87
2017-11-29T23:53:20.465Z,54.70
2017-11-29T23:55:48.227Z,55.47
2017-11-29T23:58:15.683Z,56.80
